Auxvasse, Missouri
Current Conditions -  °F | °C
As of 8:23 AM on Saturday 20 Dec 2014 (Local Time) from KCOU Reporting Station
Haze Haze  
Wind Chill: 30°   Ceiling: 300
Heat Index: 36°   Visibility: 2mi
Dew Point: 35°   Wind: 7mph
Humidity: 97%   Direction: 170°S
Pressure: 30.23"   Gusts: NA
Location:  39.02°N, 91.9°W
Report Text: KCOU 201423Z 17006KT 2SM BR OVC003 02/02 A3023 RMK AO2 T00220017
Loading
Personal Weather Stations






























Interactive Weather Map New forecast layout! Learn more

10-Day Weather Forecast

Advertisements
Track Severe Weather on mobile